Ad Dammam, Saudi Arabia
Current Conditions -  °F | °C
As of 11:00 AM on Wednesday 22 Oct 2014 (Local Time) from OEDR Reporting Station
Clear Clear  
Wind Chill: 90°   Ceiling: Unl
Heat Index: 90°   Visibility: 6mi
Dew Point: 55°   Wind: 15mph
Humidity: 31%   Direction: 20°NNE
Pressure: 30"   Gusts: NA
Location:  26.43°N, 50.1°E
Report Text: OEDR 220800Z 02013KT CAVOK 32/13 Q1016 NOSIG
Loading
Personal Weather Stations






























Interactive Weather Map
Tropical Storm Tracking
New forecast layout! Learn more

10-Day Weather Forecast

Advertisements
Track Severe Weather on mobile